Time;durP1;ratioP1;P1;durP2;ratioP2;P2;SDS_P1;SDS_P2;PMS_P1;PMS_P2;Temp;Humidity;BMP_temperature;BMP_pressure;BME280_temperature;BME280_humidity;BME280_pressure;Samples;Min_cycle;Max_cycle;Signal;HPM_P1;HPM_P2
2021/11/12 00:13:26;;;;;;;49.50;31.77;;;;;;;1.26;80.70;99606.45;2211978;80;21027;-81
2021/11/12 00:16:27;;;;;;;57.73;34.50;;;;;;;1.21;80.52;99610.44;2221384;80;21073;-80
2021/11/12 00:19:28;;;;;;;52.43;31.93;;;;;;;1.13;80.95;99609.48;2221778;80;20933;-81
2021/11/12 00:22:28;;;;;;;57.47;34.20;;;;;;;1.10;80.99;99612.75;2221801;80;20952;-81
2021/11/12 00:25:29;;;;;;;51.90;32.37;;;;;;;1.05;81.02;99613.27;2222043;80;20963;-80
2021/11/12 00:28:35;;;;;;;57.30;32.47;;;;;;;1.01;81.09;99613.48;2221525;80;20971;-81
2021/11/12 00:31:51;;;;;;;56.73;34.97;;;;;;;1.01;81.15;99615.16;2220759;80;21011;-80
2021/11/12 00:38:10;;;;;;;68.43;40.07;;;;;;;1.07;81.86;99612.56;2221760;80;20952;-81
2021/11/12 00:41:17;;;;;;;76.80;42.77;;;;;;;1.15;82.44;99610.06;2221275;80;21020;-81
2021/11/12 00:44:31;;;;;;;63.67;37.87;;;;;;;1.22;82.71;99612.21;2220713;80;21015;-81
2021/11/12 00:47:43;;;;;;;65.57;36.90;;;;;;;1.25;82.14;99607.25;2220397;80;21019;-83
2021/11/12 00:57:02;;;;;;;53.57;33.27;;;;;;;1.08;80.83;99613.45;2193816;80;20980;-81
2021/11/12 01:00:03;;;;;;;53.60;30.97;;;;;;;1.05;80.99;99610.30;2221244;80;20939;-81
2021/11/12 01:03:04;;;;;;;46.63;28.30;;;;;;;1.00;80.79;99612.98;2221448;80;20971;-81
2021/11/12 01:06:04;;;;;;;48.37;29.73;;;;;;;0.91;80.80;99608.56;2221080;80;20976;-81
2021/11/12 01:09:05;;;;;;;47.47;30.23;;;;;;;0.83;80.97;99609.34;2221649;80;20987;-81
2021/11/12 01:12:06;;;;;;;45.00;28.20;;;;;;;0.79;80.86;99606.48;2221609;80;20983;-81
2021/11/12 01:15:06;;;;;;;48.97;30.17;;;;;;;0.74;81.03;99606.59;2221344;80;21016;-80
2021/11/12 01:18:08;;;;;;;38.33;24.80;;;;;;;0.69;80.91;99606.70;2221417;80;21374;-83
2021/11/12 01:21:08;;;;;;;42.63;24.57;;;;;;;0.68;80.83;99606.22;2221212;80;20968;-81
2021/11/12 01:24:09;;;;;;;41.17;25.87;;;;;;;0.64;81.07;99606.42;2220881;80;21470;-80
2021/11/12 01:27:09;;;;;;;44.23;28.03;;;;;;;0.62;81.12;99599.91;2220527;80;20987;-81
2021/11/12 01:30:10;;;;;;;47.10;28.33;;;;;;;0.62;81.25;99593.88;2220669;80;20979;-81
2021/11/12 01:33:10;;;;;;;53.50;29.80;;;;;;;0.63;81.15;99602.08;2220713;80;20959;-81
2021/11/12 01:39:30;;;;;;;50.27;29.67;;;;;;;0.63;81.14;99601.68;2221501;80;20932;-81
2021/11/12 01:42:31;;;;;;;48.43;29.93;;;;;;;0.61;81.02;99598.52;2221213;80;20956;-81
2021/11/12 01:45:50;;;;;;;51.17;31.57;;;;;;;0.56;80.80;99594.78;2221179;80;20984;-81
2021/11/12 01:52:10;;;;;;;49.38;30.82;;;;;;;0.59;80.85;99593.69;2190552;80;21411;-80
2021/11/12 01:55:12;;;;;;;55.43;29.83;;;;;;;0.53;80.68;99592.02;2220408;80;21074;-80
2021/11/12 02:01:26;;;;;;;56.23;32.95;;;;;;;0.52;81.07;99587.27;2191202;80;21391;-80
2021/11/12 02:04:26;;;;;;;59.63;34.47;;;;;;;0.51;80.83;99588.06;2221082;80;20996;-79
2021/11/12 02:07:26;;;;;;;60.50;33.30;;;;;;;0.53;81.02;99582.63;2221214;80;21320;-79
2021/11/12 02:10:27;;;;;;;59.63;36.57;;;;;;;0.51;80.79;99584.21;2220842;80;20952;-80
2021/11/12 02:13:27;;;;;;;58.43;35.40;;;;;;;0.52;80.91;99581.25;2220476;80;20975;-79
2021/11/12 02:16:34;;;;;;;69.03;41.03;;;;;;;0.52;80.86;99580.85;2220469;80;21039;-80
2021/11/12 02:19:31;;;;;;;66.60;36.63;;;;;;;0.58;81.93;99583.80;2220277;80;21035;-82
2021/11/12 02:22:32;;;;;;;61.40;33.93;;;;;;;0.61;81.08;99581.42;2221412;80;21317;-81
2021/11/12 02:25:41;;;;;;;52.73;32.10;;;;;;;0.56;80.75;99589.24;2221194;80;20955;-81
2021/11/12 02:28:43;;;;;;;55.43;31.87;;;;;;;0.49;80.27;99588.36;2220519;80;20963;-82
2021/11/12 02:31:40;;;;;;;49.80;31.17;;;;;;;0.42;80.26;99592.62;2220488;80;20967;-81
2021/11/12 02:34:40;;;;;;;51.23;30.33;;;;;;;0.36;80.54;99588.39;2221387;80;20984;-81
2021/11/12 02:37:41;;;;;;;49.00;29.67;;;;;;;0.38;80.85;99586.80;2221454;80;20924;-82
2021/11/12 02:40:42;;;;;;;43.20;26.37;;;;;;;0.38;80.68;99590.66;2221500;80;20988;-82
2021/11/12 02:43:42;;;;;;;41.70;25.67;;;;;;;0.41;80.75;99589.56;2221533;80;21335;-81
2021/11/12 02:46:43;;;;;;;42.33;26.13;;;;;;;0.48;80.84;99587.88;2221420;80;20999;-82
2021/11/12 02:49:44;;;;;;;66.57;36.07;;;;;;;0.57;80.94;99592.70;2221418;80;20979;-81
2021/11/12 02:52:46;;;;;;;53.33;32.37;;;;;;;0.70;80.97;99589.22;2221441;80;21022;-80
2021/11/12 02:55:46;;;;;;;59.03;33.80;;;;;;;0.81;81.20;99587.80;2220808;80;20925;-80
2021/11/12 02:58:47;;;;;;;64.87;35.90;;;;;;;0.93;81.68;99585.12;2221036;80;21007;-80
2021/11/12 03:01:50;;;;;;;71.00;41.63;;;;;;;1.06;81.91;99586.36;2189845;80;20988;-80
2021/11/12 03:04:50;;;;;;;61.80;36.13;;;;;;;1.24;82.66;99591.73;2221504;80;20981;-81
2021/11/12 03:07:51;;;;;;;88.90;50.93;;;;;;;1.44;82.96;99591.23;2221529;80;20983;-80
2021/11/12 03:10:55;;;;;;;96.67;47.93;;;;;;;1.57;83.60;99596.70;2221451;80;20929;-80
2021/11/12 03:13:54;;;;;;;140.93;55.57;;;;;;;1.73;84.45;99594.23;2220640;80;21342;-80
2021/11/12 03:16:54;;;;;;;175.40;52.83;;;;;;;1.87;84.74;99597.23;2211022;81;21019;-81
2021/11/12 03:19:55;;;;;;;233.27;51.97;;;;;;;2.05;85.35;99597.81;2211046;81;21010;-82
2021/11/12 03:23:00;;;;;;;320.70;52.93;;;;;;;2.14;85.10;99602.19;2211208;81;21350;-81
2021/11/12 03:29:26;;;;;;;250.53;48.87;;;;;;;2.21;85.12;99600.05;2189409;81;21406;-82
2021/11/12 04:02:01;;;;;;;308.23;47.50;;;;;;;2.48;85.26;99626.48;2210688;81;21003;-83
2021/11/12 05:55:28;;;;;;;213.53;37.93;;;;;;;5.65;70.70;99647.66;2163143;82;20956;-81
2021/11/12 05:58:29;;;;;;;222.30;42.53;;;;;;;5.65;70.70;99647.66;2181420;82;20956;-83
2021/11/12 06:01:31;;;;;;;208.53;40.40;;;;;;;5.17;72.10;99654.08;2181369;82;20983;-83
2021/11/12 06:04:31;;;;;;;210.20;39.90;;;;;;;4.83;73.29;99655.52;2181636;82;21018;-83
2021/11/12 06:07:32;;;;;;;172.40;43.60;;;;;;;4.56;74.23;99664.54;2181924;82;21019;-81
2021/11/12 06:10:33;;;;;;;244.30;42.73;;;;;;;4.26;75.26;99669.95;2181373;82;21451;-83
2021/11/12 06:13:33;;;;;;;254.90;57.37;;;;;;;4.09;76.05;99674.67;2182616;82;21015;-81
2021/11/12 06:16:34;;;;;;;201.20;49.93;;;;;;;3.85;77.19;99680.77;2207697;80;21087;-81
2021/11/12 06:19:34;;;;;;;257.93;49.23;;;;;;;3.68;77.42;99685.06;2220757;80;20936;-83
2021/11/12 06:22:35;;;;;;;251.97;45.23;;;;;;;3.58;78.06;99680.64;2220369;80;20955;-80
2021/11/12 06:25:35;;;;;;;255.70;43.87;;;;;;;3.47;78.60;99686.52;2219861;80;20979;-81
2021/11/12 06:28:36;;;;;;;210.27;38.90;;;;;;;3.36;79.80;99685.03;2219803;80;20987;-81
2021/11/12 06:31:37;;;;;;;189.83;44.17;;;;;;;3.28;79.68;99682.44;2220485;80;20967;-82
2021/11/12 06:34:37;;;;;;;230.47;43.33;;;;;;;3.25;79.92;99687.44;2220603;80;20940;-81
2021/11/12 06:37:38;;;;;;;220.30;41.77;;;;;;;3.23;80.27;99690.34;2221742;80;21003;-81
2021/11/12 06:40:39;;;;;;;209.10;44.73;;;;;;;3.20;80.33;99686.79;2221994;80;20959;-83
2021/11/12 06:50:12;;;;;;;183.17;44.63;;;;;;;3.25;81.49;99675.42;2221941;80;21067;-81
2021/11/12 06:53:04;;;;;;;156.20;41.60;;;;;;;3.34;81.58;99677.61;2219959;80;21051;-81
2021/11/12 06:56:04;;;;;;;134.20;47.33;;;;;;;3.44;81.88;99670.44;2221659;80;20987;-81
2021/11/12 06:59:05;;;;;;;101.50;44.13;;;;;;;3.53;81.77;99675.23;2222741;80;21027;-82
2021/11/12 07:02:06;;;;;;;96.33;40.03;;;;;;;3.65;81.73;99678.86;2221406;80;20998;-81
2021/11/12 07:05:07;;;;;;;109.70;42.30;;;;;;;3.68;81.57;99681.20;2221551;80;20996;-81
2021/11/12 07:08:07;;;;;;;113.73;43.10;;;;;;;3.76;81.54;99674.73;2221972;80;20971;-83
2021/11/12 07:11:08;;;;;;;123.63;43.00;;;;;;;3.82;81.62;99676.34;2222257;80;20960;-81
2021/11/12 07:14:09;;;;;;;89.43;43.27;;;;;;;3.86;81.53;99685.12;2222521;80;21039;-82
2021/11/12 07:17:10;;;;;;;103.63;47.57;;;;;;;3.89;81.46;99690.86;2213732;80;21012;-81
2021/11/12 07:20:10;;;;;;;108.50;44.57;;;;;;;3.90;81.35;99690.94;2212457;81;20999;-83
2021/11/12 07:23:10;;;;;;;96.40;43.63;;;;;;;3.92;81.39;99685.85;2212068;81;21324;-81
2021/11/12 07:26:16;;;;;;;134.43;47.27;;;;;;;3.94;81.45;99685.53;2211624;81;21000;-81
2021/11/12 07:29:19;;;;;;;123.83;47.00;;;;;;;3.94;81.44;99681.66;2211000;81;21024;-80
2021/11/12 07:32:19;;;;;;;93.63;45.97;;;;;;;3.99;81.68;99678.90;2211011;80;20988;-82
2021/11/12 07:35:24;;;;;;;109.30;48.03;;;;;;;4.03;81.68;99676.95;2210620;81;20991;-82
2021/11/12 07:38:29;;;;;;;109.20;48.20;;;;;;;4.11;81.63;99679.11;2210863;80;21022;-80
2021/11/12 07:47:45;;;;;;;105.53;50.93;;;;;;;6.02;82.65;99672.61;2209957;81;21036;-80
2021/11/12 07:50:46;;;;;;;103.57;49.60;;;;;;;5.71;80.54;99668.66;2209488;81;21011;-80
2021/11/12 07:53:47;;;;;;;107.57;50.50;;;;;;;5.53;80.14;99669.13;2209979;81;21008;-82
2021/11/12 07:56:48;;;;;;;97.90;47.73;;;;;;;5.47;79.99;99672.74;2209997;81;21387;-81
2021/11/12 07:59:48;;;;;;;102.03;49.80;;;;;;;5.39;79.93;99677.98;2210472;81;20991;-81
2021/11/12 08:02:49;;;;;;;102.10;47.77;;;;;;;5.36;80.11;99667.48;2210122;81;21000;-80
2021/11/12 08:05:52;;;;;;;106.33;52.13;;;;;;;5.32;79.94;99665.17;2210556;81;20945;-81
2021/11/12 08:09:04;;;;;;;103.63;49.27;;;;;;;5.34;80.03;99667.83;2210107;80;20991;-82
2021/11/12 08:12:02;;;;;;;101.80;49.07;;;;;;;5.38;80.00;99665.45;2208111;80;21036;-80
2021/11/12 08:15:14;;;;;;;108.00;50.27;;;;;;;5.47;79.95;99677.03;2210114;80;20987;-80
2021/11/12 08:24:51;;;;;;;109.43;52.10;;;;;;;5.61;79.88;99675.54;2211245;81;21091;-82
2021/11/12 08:41:01;;;;;;;115.30;55.73;;;;;;;6.00;79.97;99673.84;2210553;81;21000;-81
2021/11/12 08:43:57;;;;;;;112.80;55.60;;;;;;;6.05;79.55;99671.03;2209116;80;21058;-81
2021/11/12 08:47:09;;;;;;;100.53;50.80;;;;;;;6.17;79.58;99673.29;2210272;80;21032;-81
2021/11/12 08:50:00;;;;;;;97.07;51.33;;;;;;;6.31;79.46;99672.57;2207938;80;21055;-80
2021/11/12 08:53:06;;;;;;;97.43;51.00;;;;;;;6.37;79.31;99674.13;2210796;81;21407;-79
2021/11/12 08:56:12;;;;;;;87.33;44.77;;;;;;;6.42;79.15;99667.83;2211225;81;21385;-81
2021/11/12 08:59:08;;;;;;;86.63;45.87;;;;;;;6.44;78.65;99667.07;2210416;80;21044;-81
2021/11/12 09:02:08;;;;;;;89.47;46.30;;;;;;;6.47;78.78;99670.20;2211183;81;20968;-81
2021/11/12 09:05:10;;;;;;;88.50;47.43;;;;;;;6.49;78.68;99662.08;2210900;81;20956;-79
2021/11/12 09:08:10;;;;;;;91.60;48.50;;;;;;;6.53;79.02;99664.85;2209590;81;21039;-80
2021/11/12 09:11:11;;;;;;;86.57;46.33;;;;;;;6.51;78.62;99664.31;2210350;81;20944;-81
2021/11/12 09:14:17;;;;;;;81.87;43.13;;;;;;;6.45;78.35;99664.95;2210305;81;21416;-80
2021/11/12 09:17:15;;;;;;;92.10;48.73;;;;;;;6.42;78.56;99668.72;2216283;80;21063;-81
2021/11/12 09:20:16;;;;;;;92.07;47.97;;;;;;;6.31;78.59;99659.20;2221233;80;21307;-80
2021/11/12 09:23:16;;;;;;;100.23;51.07;;;;;;;6.31;78.76;99660.91;2220644;80;20944;-81
2021/11/12 09:26:17;;;;;;;92.23;46.60;;;;;;;6.32;78.99;99662.67;2221528;80;20955;-80
2021/11/12 09:29:17;;;;;;;79.47;42.77;;;;;;;6.34;78.89;99659.33;2221248;80;21042;-79
2021/11/12 09:32:18;;;;;;;76.90;40.23;;;;;;;6.42;78.87;99656.16;2220800;80;21396;-80
2021/11/12 09:35:18;;;;;;;82.57;42.87;;;;;;;6.36;78.44;99660.27;2220319;80;20995;-82
2021/11/12 09:38:19;;;;;;;91.53;44.40;;;;;;;6.27;78.76;99659.01;2220980;80;21019;-80
2021/11/12 09:41:19;;;;;;;85.93;42.37;;;;;;;6.24;79.04;99658.87;2221073;80;20976;-80
2021/11/12 09:44:20;;;;;;;85.10;44.00;;;;;;;6.31;79.37;99655.31;2221428;80;20984;-79
2021/11/12 09:47:24;;;;;;;80.43;42.33;;;;;;;6.29;79.35;99654.77;2220668;80;20975;-79
2021/11/12 09:50:25;;;;;;;;;;;;;;;6.34;79.63;99654.14;2223367;80;21039;-80
2021/11/12 09:53:26;;;;;;;75.10;38.93;;;;;;;6.43;79.55;99656.64;2220928;80;20112;-81
2021/11/12 09:56:26;;;;;;;75.37;39.73;;;;;;;6.45;79.16;99653.69;2221192;80;20991;-80
2021/11/12 09:59:33;;;;;;;102.77;42.53;;;;;;;6.54;79.18;99651.47;2221631;80;21014;-83
2021/11/12 10:02:31;;;;;;;84.33;39.37;;;;;;;6.62;79.19;99643.17;2220320;80;20983;-81
2021/11/12 10:05:31;;;;;;;115.30;42.83;;;;;;;6.71;79.16;99647.43;2221925;80;21032;-80
2021/11/12 10:08:32;;;;;;;85.53;41.80;;;;;;;6.77;79.13;99644.61;2221471;80;20999;-80
2021/11/12 10:11:32;;;;;;;81.60;41.00;;;;;;;6.83;78.96;99640.55;2221148;80;20944;-81
2021/11/12 10:17:42;;;;;;;74.73;40.50;;;;;;;6.96;78.45;99641.94;2169650;82;21035;-80
2021/11/12 10:20:42;;;;;;;65.60;35.00;;;;;;;6.94;78.46;99638.40;2182632;82;21379;-81
2021/11/12 10:23:45;;;;;;;66.00;38.47;;;;;;;6.98;78.22;99624.30;2183183;82;20960;-81
2021/11/12 10:26:45;;;;;;;65.57;35.30;;;;;;;7.00;78.02;99616.57;2182075;82;21076;-81
2021/11/12 10:29:46;;;;;;;54.47;32.13;;;;;;;7.10;78.21;99613.50;2182126;82;20960;-80
2021/11/12 10:32:47;;;;;;;58.77;32.70;;;;;;;7.28;77.42;99616.78;2182562;82;20971;-81
2021/11/12 10:35:47;;;;;;;56.43;32.00;;;;;;;7.28;77.42;99616.78;2181572;82;21020;-82
2021/11/12 10:38:49;;;;;;;60.83;32.20;;;;;;;7.34;77.35;99605.73;2182023;82;21312;-81
2021/11/12 10:41:50;;;;;;;65.60;31.00;;;;;;;7.36;77.34;99607.97;2181347;82;21003;-82
2021/11/12 10:44:50;;;;;;;54.37;31.07;;;;;;;7.39;77.10;99604.60;2182058;82;20991;-80
2021/11/12 10:47:52;;;;;;;55.70;31.53;;;;;;;7.44;77.12;99604.35;2163013;82;21047;-81
2021/11/12 10:50:53;;;;;;;54.50;31.40;;;;;;;7.48;76.76;99603.63;2182769;82;20995;-81
2021/11/12 10:53:54;;;;;;;59.33;33.40;;;;;;;7.52;76.19;99601.20;2182285;82;20960;-80
2021/11/12 10:56:54;;;;;;;56.97;31.17;;;;;;;7.50;76.30;99601.56;2182027;82;20937;-81
2021/11/12 10:59:55;;;;;;;75.03;33.37;;;;;;;7.53;76.38;99592.99;2181798;82;20964;-80
2021/11/12 11:02:55;;;;;;;53.60;30.70;;;;;;;7.56;76.39;99593.98;2181597;82;20999;-77
2021/11/12 11:05:56;;;;;;;54.97;31.70;;;;;;;7.60;75.99;99589.78;2181507;82;20987;-81
2021/11/12 11:08:57;;;;;;;59.50;33.03;;;;;;;7.52;75.84;99591.22;2181797;82;21011;-82
2021/11/12 11:11:57;;;;;;;62.20;36.47;;;;;;;7.49;76.03;99582.91;2181795;82;20980;-80
2021/11/12 11:15:00;;;;;;;59.17;35.30;;;;;;;7.39;76.02;99578.62;2181673;82;21003;-80
2021/11/12 11:18:00;;;;;;;64.70;34.00;;;;;;;7.41;76.40;99578.27;2201567;80;21015;-82
2021/11/12 11:21:05;;;;;;;58.90;34.33;;;;;;;7.44;76.40;99572.77;2210894;81;20920;-80
2021/11/12 11:24:11;;;;;;;67.30;34.20;;;;;;;7.46;76.36;99567.63;2209719;80;21372;-81
2021/11/12 11:27:12;;;;;;;67.37;36.70;;;;;;;7.42;76.14;99569.23;2210408;81;21414;-81
2021/11/12 11:30:13;;;;;;;453.63;53.87;;;;;;;7.41;76.40;99564.86;2210697;81;20995;-82
2021/11/12 11:33:13;;;;;;;116.90;35.13;;;;;;;7.46;76.20;99562.43;2210028;81;20952;-81
2021/11/12 11:36:16;;;;;;;59.80;32.73;;;;;;;7.50;76.26;99559.11;2210344;81;21304;-81
2021/11/12 11:39:16;;;;;;;54.43;30.30;;;;;;;7.53;76.24;99551.01;2210916;81;20956;-82
2021/11/12 11:42:17;;;;;;;52.33;30.40;;;;;;;7.52;75.93;99552.25;2210920;81;20992;-82
2021/11/12 11:45:18;;;;;;;51.27;31.37;;;;;;;7.47;76.14;99545.59;2211703;81;20987;-80
2021/11/12 11:48:19;;;;;;;54.17;30.27;;;;;;;7.46;75.95;99539.94;2212013;81;20984;-83
2021/11/12 11:51:19;;;;;;;60.00;32.40;;;;;;;7.40;75.79;99536.23;2211839;81;20964;-80
2021/11/12 11:54:20;;;;;;;53.77;31.40;;;;;;;7.33;75.94;99534.73;2211643;81;20968;-82
2021/11/12 11:57:20;;;;;;;57.13;32.73;;;;;;;7.40;76.30;99533.23;2212605;81;21050;-82
2021/11/12 12:00:21;;;;;;;69.77;38.77;;;;;;;7.45;76.18;99538.17;2211982;81;21023;-81
2021/11/12 12:03:21;;;;;;;68.67;38.13;;;;;;;7.46;76.19;99532.55;2211716;81;20936;-81
2021/11/12 12:06:22;;;;;;;57.83;33.50;;;;;;;7.48;76.33;99533.50;2211673;81;20988;-81
2021/11/12 12:09:26;;;;;;;65.80;37.30;;;;;;;7.49;76.31;99533.55;2211667;81;20952;-81
2021/11/12 12:12:25;;;;;;;62.97;37.67;;;;;;;7.49;76.29;99526.17;2210656;80;21020;-80
2021/11/12 12:15:25;;;;;;;61.43;35.13;;;;;;;7.47;76.21;99524.82;2210314;81;21377;-81
2021/11/12 12:18:27;;;;;;;108.43;38.27;;;;;;;7.46;76.18;99521.75;2218536;80;21090;-80
2021/11/12 12:21:48;;;;;;;108.93;39.50;;;;;;;7.43;76.28;99519.05;2221728;80;20972;-81
2021/11/12 12:34:56;;;;;;;73.45;37.78;;;;;;;7.49;76.26;99515.36;2190765;80;21023;-75
2021/11/12 12:41:23;;;;;;;65.20;36.50;;;;;;;7.30;76.43;99509.94;2190896;80;20944;-81
2021/11/12 13:23:52;;;;;;;65.37;34.83;;;;;;;6.80;76.36;99485.14;2209459;81;20992;-81
2021/11/12 13:26:37;;;;;;;57.70;36.10;;;;;;;6.66;76.10;99498.48;2206925;80;21004;-81
2021/11/12 13:29:40;;;;;;;65.10;36.63;;;;;;;6.66;76.10;99498.48;2210305;81;20955;-82
2021/11/12 13:32:40;;;;;;;59.77;36.40;;;;;;;6.64;76.03;99499.25;2210396;81;21344;-80
2021/11/12 13:35:40;;;;;;;61.57;36.83;;;;;;;6.56;75.96;99501.97;2210400;81;20956;-80
2021/11/12 13:38:41;;;;;;;66.33;34.37;;;;;;;6.50;76.40;99496.55;2209988;81;20979;-79
2021/11/12 13:41:41;;;;;;;60.23;35.87;;;;;;;6.51;79.06;99492.72;2210840;81;20972;-80
2021/11/12 13:44:44;;;;;;;63.20;36.37;;;;;;;7.33;77.27;99490.98;2210680;81;21026;-80
2021/11/12 13:47:44;;;;;;;841.63;83.30;;;;;;;7.14;75.61;99495.06;2210367;81;21035;-80
2021/11/12 13:50:44;;;;;;;88.13;40.30;;;;;;;6.92;75.12;99505.94;2210585;81;20945;-80
2021/11/12 13:53:45;;;;;;;68.03;38.87;;;;;;;6.76;75.46;99499.72;2210142;81;21365;-80
2021/11/12 13:56:45;;;;;;;66.40;37.50;;;;;;;6.61;75.50;99496.55;2209773;81;20956;-80
2021/11/12 13:59:46;;;;;;;69.60;39.00;;;;;;;6.49;75.79;99487.00;2209579;81;20948;-79
2021/11/12 14:02:46;;;;;;;64.77;38.70;;;;;;;6.35;75.96;99484.77;2209743;81;20937;-80
2021/11/12 14:05:47;;;;;;;66.77;40.63;;;;;;;6.29;76.22;99483.23;2210179;81;20960;-80
2021/11/12 14:08:47;;;;;;;62.07;38.47;;;;;;;6.21;76.29;99487.23;2209865;81;20952;-79
2021/11/12 14:11:48;;;;;;;59.50;36.27;;;;;;;6.13;76.21;99500.31;2210454;81;20932;-82
2021/11/12 14:14:48;;;;;;;62.57;38.13;;;;;;;6.04;76.46;99493.43;2210756;81;21400;-79
2021/11/12 14:17:58;;;;;;;62.20;37.60;;;;;;;5.93;76.56;99492.12;2210829;80;21024;-79
2021/11/12 14:21:07;;;;;;;72.33;38.73;;;;;;;5.84;76.86;99487.41;2219956;80;21071;-79
2021/11/12 14:27:21;;;;;;;68.00;40.00;;;;;;;5.74;77.18;99487.45;2191203;80;21014;-80
2021/11/12 14:33:45;;;;;;;65.70;38.97;;;;;;;5.59;77.63;99480.34;2190862;80;21447;-81
2021/11/12 14:36:45;;;;;;;66.72;38.55;;;;;;;5.59;77.63;99480.34;2220334;80;21506;-80
2021/11/12 14:39:49;;;;;;;68.17;38.70;;;;;;;5.56;77.81;99481.52;2220721;80;21050;-80
2021/11/12 14:43:01;;;;;;;65.70;37.70;;;;;;;5.54;77.95;99479.27;2220356;80;21051;-81
2021/11/12 14:45:57;;;;;;;71.70;41.97;;;;;;;5.54;77.95;99479.27;2219084;80;20928;-80
2021/11/12 14:49:05;;;;;;;183.27;48.90;;;;;;;5.53;78.21;99481.38;2221251;80;21034;-80
2021/11/12 14:52:04;;;;;;;91.67;43.10;;;;;;;5.51;78.30;99479.55;2220053;80;21019;-80
2021/11/12 14:55:07;;;;;;;74.27;42.90;;;;;;;5.51;78.30;99479.55;2221938;80;20952;-80
2021/11/12 14:58:07;;;;;;;68.07;40.20;;;;;;;5.45;78.31;99487.95;2221764;80;21023;-80
2021/11/12 15:01:11;;;;;;;80.77;39.57;;;;;;;5.37;78.30;99489.33;2222365;80;20945;-81
2021/11/12 15:04:12;;;;;;;83.83;43.10;;;;;;;5.33;78.37;99485.73;2222554;80;21035;-80
2021/11/12 15:07:14;;;;;;;69.83;40.57;;;;;;;5.27;78.43;99481.99;2222195;80;21312;-85
2021/11/12 15:10:17;;;;;;;73.23;42.70;;;;;;;5.24;78.49;99477.57;2222300;80;21007;-80
2021/11/12 15:13:17;;;;;;;91.70;48.37;;;;;;;5.22;78.95;99481.80;2221555;80;20984;-81
2021/11/12 15:16:24;;;;;;;91.53;48.87;;;;;;;5.22;78.95;99481.80;2221314;80;20971;-80
2021/11/12 15:19:24;;;;;;;87.67;49.07;;;;;;;5.22;78.90;99475.73;2221052;80;21019;-81
2021/11/12 15:25:37;;;;;;;89.97;48.50;;;;;;;5.15;79.22;99474.96;2193500;80;20980;-79
2021/11/12 15:31:52;;;;;;;87.67;47.67;;;;;;;5.15;79.13;99480.14;2193722;80;21043;-80
2021/11/12 15:35:00;;;;;;;93.10;48.30;;;;;;;5.11;79.16;99476.53;2221134;80;21021;-80
2021/11/12 15:38:09;;;;;;;90.00;48.20;;;;;;;5.09;79.24;99484.23;2221155;80;21024;-80
2021/11/12 15:41:20;;;;;;;84.20;47.17;;;;;;;5.07;79.30;99491.04;2222150;80;21375;-80
2021/11/12 15:44:18;;;;;;;94.43;50.77;;;;;;;5.06;79.36;99493.16;2219372;80;20952;-80
2021/11/12 15:47:22;;;;;;;91.37;50.90;;;;;;;5.04;79.36;99483.55;2221685;80;21004;-81
2021/11/12 15:53:44;;;;;;;83.33;46.00;;;;;;;4.98;79.40;99488.05;2193579;80;20943;-81
2021/11/12 16:00:11;;;;;;;77.77;44.77;;;;;;;4.92;79.44;99477.44;2222051;80;21655;-80
2021/11/12 16:13:37;;;;;;;90.73;49.37;;;;;;;4.89;79.73;99489.34;2193356;80;20983;-81
2021/11/12 16:19:26;;;;;;;98.33;49.03;;;;;;;4.83;79.60;99502.01;2190852;80;21012;-81
2021/11/12 16:25:28;;;;;;;96.10;48.07;;;;;;;4.75;79.90;99501.26;2189588;81;21029;-80
2021/11/12 16:28:33;;;;;;;99.53;49.83;;;;;;;4.71;79.95;99499.75;2211992;81;21010;-79
2021/11/12 16:31:35;;;;;;;93.23;49.03;;;;;;;5.03;84.12;99498.20;2211567;80;21015;-79
2021/11/12 16:34:41;;;;;;;99.93;49.93;;;;;;;5.17;80.13;99497.91;2211928;80;21037;-80
2021/11/12 16:37:38;;;;;;;102.72;49.03;;;;;;;5.02;79.72;99496.83;2211256;80;20972;-80
2021/11/12 16:40:42;;;;;;;97.30;49.17;;;;;;;4.92;79.81;99496.84;2211721;81;21004;-80
2021/11/12 16:56:57;;;;;;;106.37;50.08;;;;;;;4.68;80.11;99493.16;2190301;81;20956;-82
2021/11/12 17:03:09;;;;;;;101.23;49.30;;;;;;;4.58;80.47;99493.55;2190070;81;21358;-80
2021/11/12 17:12:59;;;;;;;103.30;50.53;;;;;;;4.46;80.69;99499.05;2158910;81;22666;-81
2021/11/12 17:16:08;;;;;;;107.10;51.53;;;;;;;4.48;80.83;99502.18;2208844;80;20987;-81
2021/11/12 17:45:37;;;;;;;106.00;53.27;;;;;;;4.88;80.29;99478.11;2222265;80;21024;-80
2021/11/12 17:48:33;;;;;;;109.87;53.17;;;;;;;4.77;80.51;99475.46;2217617;80;21047;-80
2021/11/12 18:08:04;;;;;;;109.97;51.30;;;;;;;4.43;81.89;99461.02;2194502;80;21023;-82
2021/11/12 18:19:39;;;;;;;88.17;38.80;;;;;;;4.22;82.03;99465.56;2193565;80;21043;-82
2021/11/12 18:21:52;;;;;;;89.93;42.07;;;;;;;4.12;82.61;99468.13;2208722;80;21016;-81
2021/11/12 21:45:31;;;;;;;68.77;31.70;;;;;;;4.12;83.72;99385.05;2210933;81;20957;-80
2021/11/12 21:48:26;;;;;;;93.00;45.10;;;;;;;4.06;83.90;99380.00;2209826;80;21661;-80
2021/11/12 21:51:28;;;;;;;70.57;33.00;;;;;;;4.01;84.01;99378.91;2210989;81;20948;-81
2021/11/12 21:54:28;;;;;;;75.23;32.97;;;;;;;3.98;84.07;99371.02;2211278;81;21025;-81
2021/11/12 21:57:29;;;;;;;72.60;32.13;;;;;;;3.98;84.11;99364.56;2210486;81;20944;-80
2021/11/12 22:00:30;;;;;;;79.47;35.13;;;;;;;3.95;84.13;99361.44;2210825;81;20972;-82
2021/11/12 22:03:30;;;;;;;81.27;34.97;;;;;;;3.91;84.22;99365.09;2211424;81;20952;-80
2021/11/12 22:06:31;;;;;;;79.17;32.33;;;;;;;3.93;84.44;99361.77;2211140;81;21431;-80
2021/11/12 22:09:33;;;;;;;77.50;34.07;;;;;;;4.00;84.48;99371.97;2211001;81;21327;-81
2021/11/12 22:12:33;;;;;;;85.07;35.30;;;;;;;3.99;84.41;99372.79;2211493;80;21032;-81
2021/11/12 22:15:34;;;;;;;80.37;35.00;;;;;;;3.97;84.50;99378.30;2212066;81;20971;-81
2021/11/12 22:18:35;;;;;;;81.13;34.90;;;;;;;3.98;84.57;99369.32;2211712;81;21356;-80
2021/11/12 22:21:35;;;;;;;78.97;34.80;;;;;;;4.00;84.59;99368.10;2218583;80;21383;-80
2021/11/12 22:24:36;;;;;;;91.93;35.30;;;;;;;4.00;84.58;99366.81;2222377;80;20980;-82
2021/11/12 22:27:36;;;;;;;82.57;37.43;;;;;;;4.01;84.88;99368.58;2222019;80;21325;-80
2021/11/12 22:30:37;;;;;;;84.13;37.33;;;;;;;3.95;84.81;99368.30;2221901;80;21011;-81
2021/11/12 22:33:37;;;;;;;72.13;34.90;;;;;;;3.96;84.99;99369.66;2221473;80;20995;-80
2021/11/12 22:36:39;;;;;;;88.67;40.93;;;;;;;4.00;85.01;99364.23;2221482;80;20963;-80
2021/11/12 22:39:39;;;;;;;91.53;36.23;;;;;;;4.02;85.03;99360.02;2222148;80;20960;-82
2021/11/12 22:45:43;;;;;;;89.47;35.63;;;;;;;3.98;85.17;99354.23;2191964;80;20956;-81
2021/11/12 22:48:43;;;;;;;80.87;34.70;;;;;;;3.98;85.33;99358.98;2221863;80;21014;-81
2021/11/12 22:51:43;;;;;;;80.87;35.17;;;;;;;3.99;85.28;99351.72;2221361;80;20995;-80
2021/11/12 22:54:47;;;;;;;90.73;35.40;;;;;;;3.98;85.38;99349.06;2221649;80;21011;-81
2021/11/12 22:57:46;;;;;;;76.10;35.10;;;;;;;3.99;85.40;99340.50;2221318;80;20975;-80
2021/11/12 23:00:47;;;;;;;82.13;36.10;;;;;;;4.01;85.41;99333.70;2221191;80;21007;-80
2021/11/12 23:03:47;;;;;;;82.73;32.13;;;;;;;4.04;85.52;99329.56;2221398;80;21410;-80
2021/11/12 23:06:48;;;;;;;91.87;37.00;;;;;;;4.06;85.59;99322.77;2220977;80;20975;-81
2021/11/12 23:09:48;;;;;;;91.17;35.70;;;;;;;4.06;85.53;99330.92;2221451;80;20991;-80
2021/11/12 23:12:49;;;;;;;86.07;37.53;;;;;;;4.06;85.58;99332.21;2220867;80;20944;-80
2021/11/12 23:15:50;;;;;;;105.27;37.17;;;;;;;4.05;85.55;99333.91;2221274;80;20940;-80
2021/11/12 23:18:50;;;;;;;128.93;59.47;;;;;;;4.09;85.76;99337.11;2221540;80;20971;-80
2021/11/12 23:21:51;;;;;;;82.00;37.83;;;;;;;4.10;85.70;99331.13;2221135;80;21007;-79
2021/11/12 23:24:51;;;;;;;92.73;38.50;;;;;;;4.13;85.63;99334.25;2221840;80;20952;-79
2021/11/12 23:27:52;;;;;;;90.73;37.30;;;;;;;4.14;85.65;99326.58;2221617;80;20947;-81
2021/11/12 23:30:52;;;;;;;93.97;37.40;;;;;;;4.18;85.65;99313.79;2221457;80;21379;-80
2021/11/12 23:33:53;;;;;;;102.63;40.03;;;;;;;4.19;85.68;99307.40;2221247;80;20928;-80
2021/11/12 23:36:53;;;;;;;104.40;41.80;;;;;;;4.18;85.67;99304.34;2221572;80;20975;-80
2021/11/12 23:39:54;;;;;;;108.60;43.03;;;;;;;4.18;85.87;99303.05;2221385;80;20995;-81